Accueil
METAR-TAF:

METAR-TAF

Aéroports :

Plzeň, République Tchèque

latitude: 49-40-31N, longitude: 13-16-29E, altitude: 362 m

Observation

Le bulletin a été fait il y a 48 minutes, à 21:00 UTC
Vent 3 kt de sud/sud-ouest, variant entre sud et ouest/sud-ouest
Température 10°C
Humidité 82%
Pression 1003 hPa
Visibilité 10 km ou plus
Quelques nuages à une hauteur de 4900 ft
Nuages fragmentés à une hauteur de 7800 ft
Ciel couvert à une hauteur de 11000 ft

METAR: LKLN 262100Z AUTO 21003KT 180V240 9999 FEW049 BKN078 OVC110 10/07 Q1003

Heure: 23:48 (21:48 UTC)


TAF: absent

Observations et prévisions météorologiques de plus de 4000 aéroports (messages METAR et TAF).

Les stations disponibles sont représentées par des disques jaunes et rouges sur la carte.

Passer la souris dessus pour voir le nom de la station.

Cliquer dessus pour voir les observations et prévisions météorologiques.

Pour changer de carte: cliquez sur les boutons verts avec une croix noire pour zoomer, sur le bouton vert avec un tiret pour effectuer un zoom arrière, ou sur les flèches vertes pour les cartes adjacentes.


METAR-TAF: